sensor_id;sensor_type;location;lat;lon;timestamp;pressure;altitude;pressure_sealevel;temperature;humidity
56070;BME280;41944;52.078;-0.058;2023-05-15T00:01:04;101476.13;;;15.57;78.56
56070;BME280;41944;52.078;-0.058;2023-05-15T00:03:31;101475.54;;;15.55;79.39
56070;BME280;41944;52.078;-0.058;2023-05-15T00:05:58;101474.00;;;15.66;78.68
56070;BME280;41944;52.078;-0.058;2023-05-15T00:08:25;101475.77;;;15.54;79.81
56070;BME280;41944;52.078;-0.058;2023-05-15T00:10:51;101472.55;;;15.56;79.66
56070;BME280;41944;52.078;-0.058;2023-05-15T00:13:19;101473.57;;;15.63;78.95
56070;BME280;41944;52.078;-0.058;2023-05-15T00:15:46;101473.72;;;15.41;80.08
56070;BME280;41944;52.078;-0.058;2023-05-15T00:18:13;101470.90;;;15.31;80.95
56070;BME280;41944;52.078;-0.058;2023-05-15T00:20:39;101475.20;;;15.63;79.84
56070;BME280;41944;52.078;-0.058;2023-05-15T00:23:07;101475.14;;;15.51;80.25
56070;BME280;41944;52.078;-0.058;2023-05-15T00:25:34;101473.16;;;15.43;80.89
56070;BME280;41944;52.078;-0.058;2023-05-15T00:28:01;101473.39;;;15.58;80.39
56070;BME280;41944;52.078;-0.058;2023-05-15T00:30:28;101481.16;;;15.39;81.05
56070;BME280;41944;52.078;-0.058;2023-05-15T00:32:55;101481.28;;;15.39;81.33
56070;BME280;41944;52.078;-0.058;2023-05-15T00:35:22;101482.33;;;15.24;82.61
56070;BME280;41944;52.078;-0.058;2023-05-15T00:37:48;101483.69;;;15.25;82.68
56070;BME280;41944;52.078;-0.058;2023-05-15T00:40:20;101486.59;;;15.27;83.05
56070;BME280;41944;52.078;-0.058;2023-05-15T00:42:49;101490.38;;;15.25;82.98
56070;BME280;41944;52.078;-0.058;2023-05-15T00:45:17;101491.92;;;15.04;84.32
56070;BME280;41944;52.078;-0.058;2023-05-15T00:47:44;101491.59;;;15.19;83.65
56070;BME280;41944;52.078;-0.058;2023-05-15T00:50:12;101492.82;;;15.23;83.69
56070;BME280;41944;52.078;-0.058;2023-05-15T00:52:40;101489.61;;;14.99;86.12
56070;BME280;41944;52.078;-0.058;2023-05-15T00:55:09;101487.32;;;15.27;85.92
56070;BME280;41944;52.078;-0.058;2023-05-15T00:57:36;101483.85;;;15.24;89.25
56070;BME280;41944;52.078;-0.058;2023-05-15T01:00:06;101479.47;;;15.16;89.52
56070;BME280;41944;52.078;-0.058;2023-05-15T01:02:33;101483.20;;;15.11;89.72
56070;BME280;41944;52.078;-0.058;2023-05-15T01:05:01;101480.43;;;15.00;92.02
56070;BME280;41944;52.078;-0.058;2023-05-15T01:07:30;101480.93;;;15.16;90.45
56070;BME280;41944;52.078;-0.058;2023-05-15T01:10:02;101478.96;;;15.16;91.03
56070;BME280;41944;52.078;-0.058;2023-05-15T01:12:31;101477.02;;;15.01;92.52
56070;BME280;41944;52.078;-0.058;2023-05-15T01:14:58;101476.10;;;14.97;93.76
56070;BME280;41944;52.078;-0.058;2023-05-15T01:17:25;101473.49;;;14.82;94.26
56070;BME280;41944;52.078;-0.058;2023-05-15T01:19:52;101474.51;;;14.79;95.74
56070;BME280;41944;52.078;-0.058;2023-05-15T01:22:34;101481.22;;;14.60;97.85
56070;BME280;41944;52.078;-0.058;2023-05-15T01:26:30;101483.94;;;14.42;99.28
56070;BME280;41944;52.078;-0.058;2023-05-15T01:29:05;101486.76;;;14.66;97.85
56070;BME280;41944;52.078;-0.058;2023-05-15T01:31:34;101481.04;;;14.41;99.80
56070;BME280;41944;52.078;-0.058;2023-05-15T01:34:07;101477.33;;;14.58;96.77
56070;BME280;41944;52.078;-0.058;2023-05-15T01:36:40;101476.34;;;14.75;94.82
56070;BME280;41944;52.078;-0.058;2023-05-15T01:39:10;101475.15;;;14.75;94.19
56070;BME280;41944;52.078;-0.058;2023-05-15T01:41:43;101481.04;;;14.46;97.56
56070;BME280;41944;52.078;-0.058;2023-05-15T01:44:17;101479.97;;;14.42;97.85
56070;BME280;41944;52.078;-0.058;2023-05-15T01:46:49;101480.82;;;14.43;98.58
56070;BME280;41944;52.078;-0.058;2023-05-15T01:49:18;101482.76;;;14.30;99.49
56070;BME280;41944;52.078;-0.058;2023-05-15T01:51:53;101485.88;;;14.27;100.00
56070;BME280;41944;52.078;-0.058;2023-05-15T01:54:22;101487.81;;;14.25;100.00
56070;BME280;41944;52.078;-0.058;2023-05-15T01:56:51;101488.75;;;14.13;100.00
56070;BME280;41944;52.078;-0.058;2023-05-15T01:59:18;101488.76;;;14.15;100.00
56070;BME280;41944;52.078;-0.058;2023-05-15T02:01:47;101485.45;;;14.20;100.00
56070;BME280;41944;52.078;-0.058;2023-05-15T02:04:16;101488.91;;;14.19;99.88
56070;BME280;41944;52.078;-0.058;2023-05-15T02:06:45;101489.47;;;14.08;100.00
56070;BME280;41944;52.078;-0.058;2023-05-15T02:09:14;101485.12;;;14.24;99.15
56070;BME280;41944;52.078;-0.058;2023-05-15T02:11:41;101483.31;;;14.40;96.56
56070;BME280;41944;52.078;-0.058;2023-05-15T02:14:10;101482.95;;;14.34;96.44
56070;BME280;41944;52.078;-0.058;2023-05-15T02:16:38;101482.77;;;14.29;97.70
56070;BME280;41944;52.078;-0.058;2023-05-15T02:19:05;101485.40;;;14.09;99.15
56070;BME280;41944;52.078;-0.058;2023-05-15T02:21:33;101485.39;;;13.98;100.00
56070;BME280;41944;52.078;-0.058;2023-05-15T02:24:00;101483.89;;;14.08;100.00
56070;BME280;41944;52.078;-0.058;2023-05-15T02:26:34;101486.52;;;13.83;100.00
56070;BME280;41944;52.078;-0.058;2023-05-15T02:29:11;101487.51;;;13.82;100.00
56070;BME280;41944;52.078;-0.058;2023-05-15T02:31:46;101492.14;;;13.82;100.00
56070;BME280;41944;52.078;-0.058;2023-05-15T02:34:25;101490.49;;;13.86;100.00
56070;BME280;41944;52.078;-0.058;2023-05-15T02:36:54;101495.04;;;14.03;99.58
56070;BME280;41944;52.078;-0.058;2023-05-15T02:39:24;101499.31;;;13.87;100.00
56070;BME280;41944;52.078;-0.058;2023-05-15T02:41:52;101500.85;;;14.09;99.58
56070;BME280;41944;52.078;-0.058;2023-05-15T02:44:19;101500.56;;;13.93;99.43
56070;BME280;41944;52.078;-0.058;2023-05-15T02:46:48;101498.69;;;13.83;98.93
56070;BME280;41944;52.078;-0.058;2023-05-15T02:49:16;101498.48;;;13.98;98.13
56070;BME280;41944;52.078;-0.058;2023-05-15T02:51:43;101500.90;;;14.09;97.70
56070;BME280;41944;52.078;-0.058;2023-05-15T02:54:10;101500.97;;;14.05;97.58
56070;BME280;41944;52.078;-0.058;2023-05-15T02:56:37;101499.86;;;13.80;98.10
56070;BME280;41944;52.078;-0.058;2023-05-15T02:59:04;101500.18;;;13.85;97.73
56070;BME280;41944;52.078;-0.058;2023-05-15T03:01:31;101501.78;;;13.88;97.43
56070;BME280;41944;52.078;-0.058;2023-05-15T03:03:58;101504.89;;;13.65;97.46
56070;BME280;41944;52.078;-0.058;2023-05-15T03:06:25;101508.20;;;13.77;97.01
56070;BME280;41944;52.078;-0.058;2023-05-15T03:08:52;101511.25;;;13.76;97.29
56070;BME280;41944;52.078;-0.058;2023-05-15T03:11:19;101513.28;;;13.90;95.17
56070;BME280;41944;52.078;-0.058;2023-05-15T03:13:46;101510.86;;;13.76;96.01
56070;BME280;41944;52.078;-0.058;2023-05-15T03:16:12;101516.89;;;13.91;95.07
56070;BME280;41944;52.078;-0.058;2023-05-15T03:18:39;101517.15;;;13.84;95.79
56070;BME280;41944;52.078;-0.058;2023-05-15T03:21:06;101517.31;;;13.87;96.20
56070;BME280;41944;52.078;-0.058;2023-05-15T03:23:33;101514.07;;;13.68;96.52
56070;BME280;41944;52.078;-0.058;2023-05-15T03:26:00;101512.32;;;13.64;95.63
56070;BME280;41944;52.078;-0.058;2023-05-15T03:28:27;101510.69;;;13.73;93.67
56070;BME280;41944;52.078;-0.058;2023-05-15T03:30:54;101512.77;;;13.78;93.44
56070;BME280;41944;52.078;-0.058;2023-05-15T03:33:21;101515.64;;;13.85;92.02
56070;BME280;41944;52.078;-0.058;2023-05-15T03:35:48;101520.94;;;13.76;92.46
56070;BME280;41944;52.078;-0.058;2023-05-15T03:38:15;101522.83;;;13.74;93.04
56070;BME280;41944;52.078;-0.058;2023-05-15T03:40:42;101532.10;;;13.67;94.39
56070;BME280;41944;52.078;-0.058;2023-05-15T03:43:08;101535.78;;;13.76;90.99
56070;BME280;41944;52.078;-0.058;2023-05-15T03:45:35;101536.28;;;13.67;91.91
56070;BME280;41944;52.078;-0.058;2023-05-15T03:48:03;101535.02;;;13.66;91.67
56070;BME280;41944;52.078;-0.058;2023-05-15T03:50:30;101532.96;;;13.47;92.07
56070;BME280;41944;52.078;-0.058;2023-05-15T03:52:58;101528.29;;;13.43;93.18
56070;BME280;41944;52.078;-0.058;2023-05-15T03:55:25;101529.74;;;13.35;94.13
56070;BME280;41944;52.078;-0.058;2023-05-15T03:57:51;101531.80;;;13.56;90.09
56070;BME280;41944;52.078;-0.058;2023-05-15T04:00:18;101534.28;;;13.41;89.26
56070;BME280;41944;52.078;-0.058;2023-05-15T04:02:45;101535.41;;;13.30;89.09
56070;BME280;41944;52.078;-0.058;2023-05-15T04:05:12;101541.97;;;13.41;89.57
56070;BME280;41944;52.078;-0.058;2023-05-15T04:07:39;101547.02;;;13.37;89.84
56070;BME280;41944;52.078;-0.058;2023-05-15T04:10:07;101549.53;;;13.23;89.95
56070;BME280;41944;52.078;-0.058;2023-05-15T04:12:34;101551.95;;;13.15;91.47
56070;BME280;41944;52.078;-0.058;2023-05-15T04:15:13;101556.48;;;13.02;92.56
56070;BME280;41944;52.078;-0.058;2023-05-15T04:17:41;101554.39;;;12.99;93.13
56070;BME280;41944;52.078;-0.058;2023-05-15T04:20:09;101553.40;;;13.17;90.85
56070;BME280;41944;52.078;-0.058;2023-05-15T04:22:37;101555.33;;;12.97;92.31
56070;BME280;41944;52.078;-0.058;2023-05-15T04:25:05;101557.04;;;13.03;91.73
56070;BME280;41944;52.078;-0.058;2023-05-15T04:27:32;101559.82;;;13.14;91.71
56070;BME280;41944;52.078;-0.058;2023-05-15T04:29:59;101562.73;;;13.05;91.65
56070;BME280;41944;52.078;-0.058;2023-05-15T04:32:26;101568.14;;;13.20;89.72
56070;BME280;41944;52.078;-0.058;2023-05-15T04:34:53;101568.99;;;13.19;89.15
56070;BME280;41944;52.078;-0.058;2023-05-15T04:37:20;101565.21;;;13.28;86.48
56070;BME280;41944;52.078;-0.058;2023-05-15T04:39:47;101565.10;;;13.23;86.32
56070;BME280;41944;52.078;-0.058;2023-05-15T04:42:14;101568.54;;;13.21;85.89
56070;BME280;41944;52.078;-0.058;2023-05-15T04:44:40;101571.66;;;13.13;87.95
56070;BME280;41944;52.078;-0.058;2023-05-15T04:47:08;101571.62;;;12.99;89.46
56070;BME280;41944;52.078;-0.058;2023-05-15T04:49:35;101578.49;;;13.06;86.87
56070;BME280;41944;52.078;-0.058;2023-05-15T04:52:03;101581.40;;;13.19;83.67
56070;BME280;41944;52.078;-0.058;2023-05-15T04:54:30;101579.67;;;13.17;83.18
56070;BME280;41944;52.078;-0.058;2023-05-15T04:56:57;101584.74;;;12.96;80.88
56070;BME280;41944;52.078;-0.058;2023-05-15T04:59:24;101583.31;;;12.83;78.77
56070;BME280;41944;52.078;-0.058;2023-05-15T05:01:51;101592.35;;;12.79;80.34
56070;BME280;41944;52.078;-0.058;2023-05-15T05:04:18;101598.47;;;12.61;80.82
56070;BME280;41944;52.078;-0.058;2023-05-15T05:06:45;101598.24;;;12.55;81.72
56070;BME280;41944;52.078;-0.058;2023-05-15T05:09:12;101599.73;;;12.74;80.65
56070;BME280;41944;52.078;-0.058;2023-05-15T05:11:40;101592.76;;;12.85;80.56
56070;BME280;41944;52.078;-0.058;2023-05-15T05:14:08;101604.01;;;12.67;82.75
56070;BME280;41944;52.078;-0.058;2023-05-15T05:16:35;101601.84;;;12.90;82.11
56070;BME280;41944;52.078;-0.058;2023-05-15T05:19:02;101603.21;;;13.01;82.57
56070;BME280;41944;52.078;-0.058;2023-05-15T05:21:29;101608.78;;;13.02;83.20
56070;BME280;41944;52.078;-0.058;2023-05-15T05:23:56;101616.06;;;12.88;85.02
56070;BME280;41944;52.078;-0.058;2023-05-15T05:26:23;101619.39;;;12.91;85.08
56070;BME280;41944;52.078;-0.058;2023-05-15T05:28:51;101622.19;;;12.87;83.02
56070;BME280;41944;52.078;-0.058;2023-05-15T05:31:19;101626.01;;;12.85;80.55
56070;BME280;41944;52.078;-0.058;2023-05-15T05:33:46;101626.75;;;12.80;78.55
56070;BME280;41944;52.078;-0.058;2023-05-15T05:36:13;101628.31;;;12.72;76.32
56070;BME280;41944;52.078;-0.058;2023-05-15T05:38:40;101628.62;;;12.77;77.28
56070;BME280;41944;52.078;-0.058;2023-05-15T05:41:08;101633.30;;;12.77;76.91
56070;BME280;41944;52.078;-0.058;2023-05-15T05:43:35;101641.41;;;12.95;75.18
56070;BME280;41944;52.078;-0.058;2023-05-15T05:46:02;101637.71;;;12.88;74.34
56070;BME280;41944;52.078;-0.058;2023-05-15T05:48:29;101640.34;;;12.77;72.52
56070;BME280;41944;52.078;-0.058;2023-05-15T05:50:56;101642.64;;;12.60;75.93
56070;BME280;41944;52.078;-0.058;2023-05-15T05:53:24;101639.86;;;12.56;73.07
56070;BME280;41944;52.078;-0.058;2023-05-15T05:55:51;101647.11;;;12.20;72.30
56070;BME280;41944;52.078;-0.058;2023-05-15T05:58:17;101650.77;;;12.41;71.33
56070;BME280;41944;52.078;-0.058;2023-05-15T06:00:44;101652.03;;;12.39;69.02
56070;BME280;41944;52.078;-0.058;2023-05-15T06:03:11;101657.36;;;12.37;69.36
56070;BME280;41944;52.078;-0.058;2023-05-15T06:05:38;101656.17;;;12.46;69.16
56070;BME280;41944;52.078;-0.058;2023-05-15T06:08:05;101655.24;;;12.16;69.26
56070;BME280;41944;52.078;-0.058;2023-05-15T06:10:32;101657.94;;;12.35;68.11
56070;BME280;41944;52.078;-0.058;2023-05-15T06:12:59;101655.87;;;12.14;68.71
56070;BME280;41944;52.078;-0.058;2023-05-15T06:15:25;101657.77;;;12.50;67.81
56070;BME280;41944;52.078;-0.058;2023-05-15T06:17:52;101659.35;;;12.59;66.86
56070;BME280;41944;52.078;-0.058;2023-05-15T06:20:20;101661.31;;;12.73;66.27
56070;BME280;41944;52.078;-0.058;2023-05-15T06:22:47;101661.60;;;12.77;66.12
56070;BME280;41944;52.078;-0.058;2023-05-15T06:25:14;101661.71;;;12.83;66.59
56070;BME280;41944;52.078;-0.058;2023-05-15T06:27:40;101658.86;;;12.88;66.31
56070;BME280;41944;52.078;-0.058;2023-05-15T06:30:09;101661.66;;;12.53;66.07
56070;BME280;41944;52.078;-0.058;2023-05-15T06:32:36;101660.00;;;12.64;66.67
56070;BME280;41944;52.078;-0.058;2023-05-15T06:35:03;101665.33;;;12.64;66.03
56070;BME280;41944;52.078;-0.058;2023-05-15T06:37:31;101666.78;;;12.42;66.35
56070;BME280;41944;52.078;-0.058;2023-05-15T06:39:57;101669.87;;;12.56;67.57
56070;BME280;41944;52.078;-0.058;2023-05-15T06:42:24;101670.56;;;12.52;66.33
56070;BME280;41944;52.078;-0.058;2023-05-15T06:44:51;101672.19;;;12.61;66.76
56070;BME280;41944;52.078;-0.058;2023-05-15T06:47:18;101670.67;;;12.76;66.90
56070;BME280;41944;52.078;-0.058;2023-05-15T06:49:45;101670.18;;;12.90;66.64
56070;BME280;41944;52.078;-0.058;2023-05-15T06:52:12;101673.66;;;12.95;65.72
56070;BME280;41944;52.078;-0.058;2023-05-15T06:54:39;101673.39;;;13.00;62.57
56070;BME280;41944;52.078;-0.058;2023-05-15T06:57:06;101670.02;;;12.85;63.84
56070;BME280;41944;52.078;-0.058;2023-05-15T06:59:33;101670.42;;;12.88;65.71
56070;BME280;41944;52.078;-0.058;2023-05-15T07:02:00;101671.16;;;13.16;66.10
56070;BME280;41944;52.078;-0.058;2023-05-15T07:04:27;101665.46;;;13.29;65.94
56070;BME280;41944;52.078;-0.058;2023-05-15T07:06:54;101671.11;;;13.27;65.71
56070;BME280;41944;52.078;-0.058;2023-05-15T07:09:21;101682.47;;;13.16;63.89
56070;BME280;41944;52.078;-0.058;2023-05-15T07:11:48;101686.23;;;13.15;64.89
56070;BME280;41944;52.078;-0.058;2023-05-15T07:14:15;101687.68;;;13.02;64.15
56070;BME280;41944;52.078;-0.058;2023-05-15T07:16:41;101688.16;;;13.02;65.68
56070;BME280;41944;52.078;-0.058;2023-05-15T07:19:08;101690.01;;;12.82;65.37
56070;BME280;41944;52.078;-0.058;2023-05-15T07:21:35;101698.25;;;13.00;65.61
56070;BME280;41944;52.078;-0.058;2023-05-15T07:24:02;101691.59;;;12.55;64.02
56070;BME280;41944;52.078;-0.058;2023-05-15T07:26:30;101698.54;;;12.63;64.93
56070;BME280;41944;52.078;-0.058;2023-05-15T07:28:57;101689.73;;;12.74;63.94
56070;BME280;41944;52.078;-0.058;2023-05-15T07:31:24;101695.81;;;12.97;62.59
56070;BME280;41944;52.078;-0.058;2023-05-15T07:33:51;101697.78;;;13.02;62.72
56070;BME280;41944;52.078;-0.058;2023-05-15T07:36:18;101698.32;;;13.16;63.74
56070;BME280;41944;52.078;-0.058;2023-05-15T07:38:45;101697.50;;;13.18;64.27
56070;BME280;41944;52.078;-0.058;2023-05-15T07:41:12;101694.58;;;13.46;64.08
56070;BME280;41944;52.078;-0.058;2023-05-15T07:43:39;101697.60;;;13.50;62.93
56070;BME280;41944;52.078;-0.058;2023-05-15T07:46:06;101705.41;;;13.55;62.01
56070;BME280;41944;52.078;-0.058;2023-05-15T07:48:33;101696.90;;;13.49;61.71
56070;BME280;41944;52.078;-0.058;2023-05-15T07:51:00;101701.24;;;13.38;61.97
56070;BME280;41944;52.078;-0.058;2023-05-15T07:53:27;101701.28;;;13.35;63.39
56070;BME280;41944;52.078;-0.058;2023-05-15T07:55:54;101695.41;;;13.57;62.45
56070;BME280;41944;52.078;-0.058;2023-05-15T07:58:20;101702.46;;;13.67;62.73
56070;BME280;41944;52.078;-0.058;2023-05-15T08:00:47;101701.65;;;13.55;64.24
56070;BME280;41944;52.078;-0.058;2023-05-15T08:03:14;101703.50;;;13.69;63.22
56070;BME280;41944;52.078;-0.058;2023-05-15T08:05:41;101702.47;;;13.76;63.06
56070;BME280;41944;52.078;-0.058;2023-05-15T08:08:08;101700.05;;;13.64;61.62
56070;BME280;41944;52.078;-0.058;2023-05-15T08:10:36;101711.89;;;13.53;61.86
56070;BME280;41944;52.078;-0.058;2023-05-15T08:13:03;101708.64;;;13.63;63.22
56070;BME280;41944;52.078;-0.058;2023-05-15T08:15:29;101706.98;;;13.76;60.74
56070;BME280;41944;52.078;-0.058;2023-05-15T08:17:56;101710.89;;;13.60;60.48
56070;BME280;41944;52.078;-0.058;2023-05-15T08:20:23;101713.28;;;13.81;59.93
56070;BME280;41944;52.078;-0.058;2023-05-15T08:22:50;101712.91;;;13.80;60.47
56070;BME280;41944;52.078;-0.058;2023-05-15T08:25:17;101708.14;;;13.96;61.34
56070;BME280;41944;52.078;-0.058;2023-05-15T08:27:44;101715.22;;;14.04;58.86
56070;BME280;41944;52.078;-0.058;2023-05-15T08:30:12;101707.43;;;13.98;59.46
56070;BME280;41944;52.078;-0.058;2023-05-15T08:32:41;101713.28;;;14.11;60.71
56070;BME280;41944;52.078;-0.058;2023-05-15T08:35:08;101709.04;;;14.13;57.62
56070;BME280;41944;52.078;-0.058;2023-05-15T08:37:36;101701.17;;;14.22;57.11
56070;BME280;41944;52.078;-0.058;2023-05-15T08:40:03;101710.55;;;14.28;58.75
56070;BME280;41944;52.078;-0.058;2023-05-15T08:42:33;101712.97;;;14.39;58.29
56070;BME280;41944;52.078;-0.058;2023-05-15T08:45:03;101720.30;;;14.54;57.80
56070;BME280;41944;52.078;-0.058;2023-05-15T08:47:32;101718.03;;;14.42;56.89
56070;BME280;41944;52.078;-0.058;2023-05-15T08:50:05;101715.54;;;14.52;57.33
56070;BME280;41944;52.078;-0.058;2023-05-15T08:52:33;101715.53;;;14.48;58.12
56070;BME280;41944;52.078;-0.058;2023-05-15T08:55:02;101720.30;;;14.66;57.53
56070;BME280;41944;52.078;-0.058;2023-05-15T08:57:30;101719.73;;;14.59;57.72
56070;BME280;41944;52.078;-0.058;2023-05-15T08:59:59;101724.50;;;14.39;57.41
56070;BME280;41944;52.078;-0.058;2023-05-15T09:02:26;101724.05;;;14.50;58.64
56070;BME280;41944;52.078;-0.058;2023-05-15T09:04:54;101733.35;;;14.47;57.72
56070;BME280;41944;52.078;-0.058;2023-05-15T09:07:21;101730.72;;;14.26;59.44
56070;BME280;41944;52.078;-0.058;2023-05-15T09:09:49;101736.23;;;14.05;58.29
56070;BME280;41944;52.078;-0.058;2023-05-15T09:12:17;101727.91;;;14.01;58.48
56070;BME280;41944;52.078;-0.058;2023-05-15T09:14:44;101725.94;;;14.14;60.76
56070;BME280;41944;52.078;-0.058;2023-05-15T09:17:12;101726.38;;;14.33;60.88
56070;BME280;41944;52.078;-0.058;2023-05-15T09:19:40;101732.22;;;14.25;58.92
56070;BME280;41944;52.078;-0.058;2023-05-15T09:22:15;101725.03;;;14.41;58.69
56070;BME280;41944;52.078;-0.058;2023-05-15T09:24:43;101723.91;;;14.28;58.51
56070;BME280;41944;52.078;-0.058;2023-05-15T09:27:11;101723.75;;;14.25;59.77
56070;BME280;41944;52.078;-0.058;2023-05-15T09:29:39;101735.11;;;14.23;61.16
56070;BME280;41944;52.078;-0.058;2023-05-15T09:32:09;101728.20;;;14.28;60.60
56070;BME280;41944;52.078;-0.058;2023-05-15T09:34:39;101728.99;;;14.27;61.82
56070;BME280;41944;52.078;-0.058;2023-05-15T09:37:07;101732.44;;;14.50;61.93
56070;BME280;41944;52.078;-0.058;2023-05-15T09:39:40;101731.77;;;14.89;61.43
56070;BME280;41944;52.078;-0.058;2023-05-15T09:42:08;101731.25;;;14.99;59.82
56070;BME280;41944;52.078;-0.058;2023-05-15T09:44:40;101733.50;;;14.91;59.36
56070;BME280;41944;52.078;-0.058;2023-05-15T09:47:08;101733.78;;;14.90;58.61
56070;BME280;41944;52.078;-0.058;2023-05-15T09:49:36;101739.33;;;14.81;58.58
56070;BME280;41944;52.078;-0.058;2023-05-15T09:52:07;101736.86;;;14.63;57.66
56070;BME280;41944;52.078;-0.058;2023-05-15T09:54:35;101744.19;;;14.33;58.57
56070;BME280;41944;52.078;-0.058;2023-05-15T09:57:11;101743.95;;;14.11;59.56
56070;BME280;41944;52.078;-0.058;2023-05-15T09:59:43;101748.88;;;14.14;60.08
56070;BME280;41944;52.078;-0.058;2023-05-15T10:02:13;101752.70;;;13.98;60.53
56070;BME280;41944;52.078;-0.058;2023-05-15T10:04:40;101750.92;;;14.13;60.54
56070;BME280;41944;52.078;-0.058;2023-05-15T10:07:07;101750.52;;;14.25;60.49
56070;BME280;41944;52.078;-0.058;2023-05-15T10:09:35;101744.67;;;14.45;59.90
56070;BME280;41944;52.078;-0.058;2023-05-15T10:12:02;101739.93;;;14.63;61.64
56070;BME280;41944;52.078;-0.058;2023-05-15T10:14:29;101747.69;;;15.06;59.36
56070;BME280;41944;52.078;-0.058;2023-05-15T10:16:57;101747.73;;;15.10;57.10
56070;BME280;41944;52.078;-0.058;2023-05-15T10:19:24;101746.05;;;15.22;58.06
56070;BME280;41944;52.078;-0.058;2023-05-15T10:21:55;101743.41;;;15.42;58.87
56070;BME280;41944;52.078;-0.058;2023-05-15T10:24:24;101741.95;;;15.32;57.68
56070;BME280;41944;52.078;-0.058;2023-05-15T10:26:54;101747.83;;;15.22;58.08
56070;BME280;41944;52.078;-0.058;2023-05-15T10:29:24;101739.94;;;15.17;57.54
56070;BME280;41944;52.078;-0.058;2023-05-15T10:31:52;101738.53;;;15.04;57.21
56070;BME280;41944;52.078;-0.058;2023-05-15T10:34:20;101742.87;;;14.99;58.64
56070;BME280;41944;52.078;-0.058;2023-05-15T10:36:48;101749.03;;;14.40;58.70
56070;BME280;41944;52.078;-0.058;2023-05-15T10:39:16;101750.27;;;14.48;60.38
56070;BME280;41944;52.078;-0.058;2023-05-15T10:41:45;101747.49;;;14.65;59.84
56070;BME280;41944;52.078;-0.058;2023-05-15T10:44:13;101754.49;;;14.56;59.22
56070;BME280;41944;52.078;-0.058;2023-05-15T10:46:41;101754.75;;;14.54;60.08
56070;BME280;41944;52.078;-0.058;2023-05-15T10:49:09;101757.55;;;14.32;60.33
56070;BME280;41944;52.078;-0.058;2023-05-15T10:51:36;101756.70;;;14.60;60.63
56070;BME280;41944;52.078;-0.058;2023-05-15T10:54:03;101763.24;;;14.64;58.64
56070;BME280;41944;52.078;-0.058;2023-05-15T10:56:32;101758.19;;;14.63;58.46
56070;BME280;41944;52.078;-0.058;2023-05-15T10:59:05;101759.49;;;14.66;59.54
56070;BME280;41944;52.078;-0.058;2023-05-15T11:01:34;101761.62;;;14.89;58.49
56070;BME280;41944;52.078;-0.058;2023-05-15T11:04:11;101764.43;;;15.03;59.10
56070;BME280;41944;52.078;-0.058;2023-05-15T11:06:39;101765.37;;;15.16;59.51
56070;BME280;41944;52.078;-0.058;2023-05-15T11:09:39;101771.79;;;15.23;58.37
56070;BME280;41944;52.078;-0.058;2023-05-15T11:12:08;101768.03;;;15.27;57.55
56070;BME280;41944;52.078;-0.058;2023-05-15T11:14:38;101789.62;;;15.23;57.59
56070;BME280;41944;52.078;-0.058;2023-05-15T11:17:08;101779.94;;;15.29;56.77
56070;BME280;41944;52.078;-0.058;2023-05-15T11:19:38;101779.14;;;15.09;57.03
56070;BME280;41944;52.078;-0.058;2023-05-15T11:22:17;101785.64;;;15.34;57.38
56070;BME280;41944;52.078;-0.058;2023-05-15T11:24:50;101784.58;;;15.36;56.59
56070;BME280;41944;52.078;-0.058;2023-05-15T11:27:19;101786.95;;;15.31;56.74
56070;BME280;41944;52.078;-0.058;2023-05-15T11:30:04;101784.35;;;15.31;57.46
56070;BME280;41944;52.078;-0.058;2023-05-15T11:32:39;101789.61;;;15.43;56.39
56070;BME280;41944;52.078;-0.058;2023-05-15T11:35:09;101790.07;;;15.49;56.42
56070;BME280;41944;52.078;-0.058;2023-05-15T11:37:37;101784.19;;;15.51;57.00
56070;BME280;41944;52.078;-0.058;2023-05-15T11:40:12;101786.63;;;15.62;57.36
56070;BME280;41944;52.078;-0.058;2023-05-15T11:42:39;101781.83;;;15.98;56.12
56070;BME280;41944;52.078;-0.058;2023-05-15T11:45:08;101781.70;;;16.12;54.87
56070;BME280;41944;52.078;-0.058;2023-05-15T11:47:36;101783.88;;;16.22;54.05
56070;BME280;41944;52.078;-0.058;2023-05-15T11:50:04;101783.04;;;16.09;54.11
56070;BME280;41944;52.078;-0.058;2023-05-15T11:52:31;101778.28;;;16.08;54.52
56070;BME280;41944;52.078;-0.058;2023-05-15T11:54:59;101782.23;;;16.06;53.28
56070;BME280;41944;52.078;-0.058;2023-05-15T11:57:27;101780.68;;;16.40;53.37
56070;BME280;41944;52.078;-0.058;2023-05-15T11:59:53;101782.01;;;16.53;52.43
56070;BME280;41944;52.078;-0.058;2023-05-15T12:02:20;101774.74;;;16.76;52.79
56070;BME280;41944;52.078;-0.058;2023-05-15T12:04:48;101778.28;;;16.66;52.01
56070;BME280;41944;52.078;-0.058;2023-05-15T12:07:16;101779.24;;;17.09;52.02
56070;BME280;41944;52.078;-0.058;2023-05-15T12:09:43;101783.05;;;16.94;52.53
56070;BME280;41944;52.078;-0.058;2023-05-15T12:12:16;101778.61;;;16.80;53.23
56070;BME280;41944;52.078;-0.058;2023-05-15T12:14:43;101776.17;;;16.66;50.73
56070;BME280;41944;52.078;-0.058;2023-05-15T12:17:09;101778.87;;;16.63;51.77
56070;BME280;41944;52.078;-0.058;2023-05-15T12:19:37;101766.38;;;16.81;52.59
56070;BME280;41944;52.078;-0.058;2023-05-15T12:22:05;101773.90;;;16.59;52.23
56070;BME280;41944;52.078;-0.058;2023-05-15T12:24:36;101772.69;;;16.58;52.94
56070;BME280;41944;52.078;-0.058;2023-05-15T12:27:04;101778.45;;;16.36;53.64
56070;BME280;41944;52.078;-0.058;2023-05-15T12:29:32;101777.52;;;16.51;52.74
56070;BME280;41944;52.078;-0.058;2023-05-15T12:31:59;101781.86;;;16.46;52.69
56070;BME280;41944;52.078;-0.058;2023-05-15T12:34:27;101775.79;;;16.48;52.92
56070;BME280;41944;52.078;-0.058;2023-05-15T12:36:54;101772.03;;;16.84;51.80
56070;BME280;41944;52.078;-0.058;2023-05-15T12:39:21;101770.92;;;17.21;49.97
56070;BME280;41944;52.078;-0.058;2023-05-15T12:41:47;101773.29;;;16.96;50.39
56070;BME280;41944;52.078;-0.058;2023-05-15T12:44:16;101781.26;;;16.94;51.32
56070;BME280;41944;52.078;-0.058;2023-05-15T12:46:43;101783.71;;;16.64;51.41